createdAt,value
2023-05-14T00:01:32.083Z,11.43
2023-05-14T00:03:58.856Z,11.34
2023-05-14T00:06:25.951Z,11.31
2023-05-14T00:08:52.653Z,11.48
2023-05-14T00:11:19.644Z,11.43
2023-05-14T00:13:46.564Z,11.36
2023-05-14T00:16:13.298Z,11.37
2023-05-14T00:18:40.113Z,11.37
2023-05-14T00:21:06.993Z,11.19
2023-05-14T00:23:33.837Z,11.14
2023-05-14T00:26:00.686Z,11.20
2023-05-14T00:28:27.654Z,10.96
2023-05-14T00:30:54.716Z,11.15
2023-05-14T00:33:21.392Z,10.92
2023-05-14T00:35:48.805Z,11.00
2023-05-14T00:38:19.215Z,11.17
2023-05-14T00:40:51.223Z,11.07
2023-05-14T00:43:22.756Z,10.95
2023-05-14T00:45:53.843Z,10.81
2023-05-14T00:48:21.546Z,10.85
2023-05-14T00:50:49.800Z,10.69
2023-05-14T00:53:17.078Z,10.69
2023-05-14T00:55:45.329Z,10.69
2023-05-14T00:58:13.901Z,10.70
2023-05-14T01:00:41.447Z,10.71
2023-05-14T01:03:09.287Z,10.69
2023-05-14T01:05:58.792Z,10.60
2023-05-14T01:08:50.858Z,10.60
2023-05-14T01:11:28.914Z,10.60
2023-05-14T01:14:11.301Z,10.60
2023-05-14T01:16:40.273Z,10.57
2023-05-14T01:19:13.964Z,10.48
2023-05-14T01:21:43.556Z,10.40
2023-05-14T01:24:10.542Z,10.35
2023-05-14T01:26:37.504Z,10.31
2023-05-14T01:29:20.870Z,10.26
2023-05-14T01:31:50.556Z,10.22
2023-05-14T01:34:21.191Z,10.31
2023-05-14T01:36:48.907Z,10.22
2023-05-14T01:39:16.013Z,10.16
2023-05-14T01:41:44.127Z,10.07
2023-05-14T01:44:11.403Z,10.01
2023-05-14T01:46:38.534Z,9.89
2023-05-14T01:49:05.535Z,9.83
2023-05-14T01:51:32.743Z,9.75
2023-05-14T01:53:59.497Z,9.79
2023-05-14T01:56:27.008Z,9.74
2023-05-14T01:58:53.864Z,9.74
2023-05-14T02:01:20.830Z,9.69
2023-05-14T02:03:47.611Z,9.60
2023-05-14T02:06:14.386Z,9.52
2023-05-14T02:08:41.122Z,9.49
2023-05-14T02:11:07.867Z,9.49
2023-05-14T02:13:34.788Z,9.48
2023-05-14T02:16:01.703Z,9.39
2023-05-14T02:18:28.605Z,9.39
2023-05-14T02:20:55.335Z,9.36
2023-05-14T02:23:31.068Z,9.31
2023-05-14T02:26:04.939Z,9.25
2023-05-14T02:28:31.621Z,9.25
2023-05-14T02:31:01.809Z,9.20
2023-05-14T02:33:28.739Z,9.08
2023-05-14T02:35:55.584Z,9.05
2023-05-14T02:38:23.012Z,9.05
2023-05-14T02:40:49.734Z,8.95
2023-05-14T02:43:16.424Z,9.01
2023-05-14T02:45:43.107Z,8.89
2023-05-14T02:48:09.855Z,8.81
2023-05-14T02:50:36.606Z,8.94
2023-05-14T02:53:03.401Z,9.02
2023-05-14T02:55:30.107Z,9.02
2023-05-14T02:57:56.946Z,8.96
2023-05-14T03:00:24.175Z,8.96
2023-05-14T03:02:51.347Z,8.98
2023-05-14T03:05:18.810Z,8.95
2023-05-14T03:07:45.609Z,8.90
2023-05-14T03:10:12.328Z,8.89
2023-05-14T03:12:39.116Z,8.87
2023-05-14T03:15:06.241Z,8.94
2023-05-14T03:17:33.021Z,9.03
2023-05-14T03:19:59.704Z,9.05
2023-05-14T03:22:26.682Z,9.01
2023-05-14T03:24:53.775Z,9.04
2023-05-14T03:27:20.899Z,8.94
2023-05-14T03:29:47.674Z,8.80
2023-05-14T03:32:15.106Z,8.70
2023-05-14T03:34:41.960Z,8.65
2023-05-14T03:37:08.687Z,8.67
2023-05-14T03:39:36.121Z,8.66
2023-05-14T03:42:03.001Z,8.67
2023-05-14T03:44:29.889Z,8.72
2023-05-14T03:46:56.616Z,8.78
2023-05-14T03:49:23.356Z,8.76
2023-05-14T03:51:50.109Z,8.79
2023-05-14T03:54:16.830Z,8.81
2023-05-14T03:56:43.532Z,8.85
2023-05-14T03:59:10.345Z,8.86
2023-05-14T04:01:37.080Z,8.90
2023-05-14T04:04:04.093Z,8.93
2023-05-14T04:06:31.631Z,9.09
2023-05-14T04:08:58.435Z,9.14
2023-05-14T04:11:25.316Z,9.21
2023-05-14T04:13:52.132Z,9.24
2023-05-14T04:16:19.044Z,9.24
2023-05-14T04:18:46.039Z,9.36
2023-05-14T04:21:13.037Z,9.42
2023-05-14T04:23:39.830Z,9.48
2023-05-14T04:26:06.617Z,9.60
2023-05-14T04:28:33.370Z,9.74
2023-05-14T04:31:00.263Z,9.82
2023-05-14T04:33:27.033Z,9.98
2023-05-14T04:35:53.847Z,10.16
2023-05-14T04:38:20.563Z,10.30
2023-05-14T04:40:47.341Z,10.57
2023-05-14T04:43:14.188Z,10.65
2023-05-14T04:45:41.133Z,10.98
2023-05-14T04:48:08.761Z,11.28
2023-05-14T04:50:35.633Z,11.53
2023-05-14T04:53:03.168Z,11.90
2023-05-14T04:55:30.097Z,12.14
2023-05-14T04:57:56.974Z,12.44
2023-05-14T05:00:24.078Z,12.74
2023-05-14T05:02:51.273Z,12.99
2023-05-14T05:05:18.212Z,13.04
2023-05-14T05:07:44.934Z,13.10
2023-05-14T05:10:11.657Z,13.34
2023-05-14T05:12:38.403Z,13.64
2023-05-14T05:15:06.404Z,13.62
2023-05-14T05:17:33.196Z,13.96
2023-05-14T05:19:59.919Z,13.88
2023-05-14T05:22:26.985Z,14.27
2023-05-14T05:24:53.650Z,14.42
2023-05-14T05:27:21.972Z,14.37
2023-05-14T05:29:48.824Z,14.51
2023-05-14T05:32:15.584Z,14.45
2023-05-14T05:34:42.375Z,14.30
2023-05-14T05:37:12.677Z,14.25
2023-05-14T05:39:39.908Z,14.11
2023-05-14T05:42:07.340Z,14.19
2023-05-14T05:44:34.226Z,14.04
2023-05-14T05:47:01.097Z,14.21
2023-05-14T05:49:27.912Z,14.68
2023-05-14T05:51:54.619Z,15.10
2023-05-14T05:54:23.767Z,15.09
2023-05-14T05:56:50.697Z,15.25
2023-05-14T05:59:17.476Z,15.69
2023-05-14T06:01:44.217Z,15.74
2023-05-14T06:04:11.044Z,15.72
2023-05-14T06:06:37.782Z,15.19
2023-05-14T06:09:04.646Z,15.47
2023-05-14T06:11:31.399Z,15.65
2023-05-14T06:13:58.205Z,15.96
2023-05-14T06:16:25.010Z,15.82
2023-05-14T06:18:52.779Z,15.87
2023-05-14T06:21:19.699Z,15.90
2023-05-14T06:23:46.630Z,15.96
2023-05-14T06:26:13.418Z,15.93
2023-05-14T06:28:40.245Z,16.17
2023-05-14T06:31:07.125Z,16.28
2023-05-14T06:33:33.910Z,16.63
2023-05-14T06:36:04.431Z,16.87
2023-05-14T06:38:31.275Z,17.15
2023-05-14T06:40:58.158Z,17.45
2023-05-14T06:43:24.898Z,17.56
2023-05-14T06:45:52.385Z,17.60
2023-05-14T06:48:19.619Z,17.66
2023-05-14T06:50:47.700Z,17.95
2023-05-14T06:53:14.475Z,18.25
2023-05-14T06:55:41.516Z,18.33
2023-05-14T06:58:08.900Z,18.66
2023-05-14T07:00:35.777Z,18.88
2023-05-14T07:03:02.581Z,19.33
2023-05-14T07:05:29.559Z,19.68
2023-05-14T07:07:56.292Z,19.72
2023-05-14T07:10:23.600Z,19.84
2023-05-14T07:12:50.588Z,20.05
2023-05-14T07:15:17.422Z,20.59
2023-05-14T07:17:44.245Z,20.77
2023-05-14T07:20:11.559Z,20.87
2023-05-14T07:22:38.320Z,20.72
2023-05-14T07:25:05.339Z,21.28
2023-05-14T07:27:32.224Z,21.96
2023-05-14T07:29:58.964Z,21.58
2023-05-14T07:32:25.848Z,21.54
2023-05-14T07:34:52.704Z,21.51
2023-05-14T07:37:19.816Z,21.79
2023-05-14T07:39:47.463Z,21.79
2023-05-14T07:42:19.528Z,22.24
2023-05-14T07:44:54.998Z,22.26
2023-05-14T07:47:21.860Z,22.29
2023-05-14T07:49:48.668Z,22.25
2023-05-14T07:52:15.408Z,21.78
2023-05-14T07:54:42.112Z,21.51
2023-05-14T07:57:09.091Z,21.49
2023-05-14T07:59:35.977Z,21.34
2023-05-14T08:02:02.963Z,21.20
2023-05-14T08:04:29.899Z,21.15
2023-05-14T08:06:58.153Z,21.03
2023-05-14T08:09:24.899Z,21.01
2023-05-14T08:11:51.555Z,20.79
2023-05-14T08:14:18.344Z,20.84
2023-05-14T08:16:45.173Z,21.04
2023-05-14T08:19:13.066Z,21.42
2023-05-14T08:21:39.904Z,21.21
2023-05-14T08:24:06.856Z,21.59
2023-05-14T08:26:33.607Z,21.98
2023-05-14T08:29:00.347Z,22.16
2023-05-14T08:31:27.152Z,21.94
2023-05-14T08:33:54.016Z,21.99
2023-05-14T08:36:20.887Z,22.06
2023-05-14T08:38:48.500Z,22.04
2023-05-14T08:41:16.325Z,21.97
2023-05-14T08:44:06.842Z,22.46
2023-05-14T08:46:34.165Z,22.44
2023-05-14T08:49:11.250Z,22.36
2023-05-14T08:51:38.660Z,22.26
2023-05-14T08:54:05.890Z,22.37
2023-05-14T08:56:33.435Z,22.51
2023-05-14T08:59:00.809Z,22.51
2023-05-14T09:01:28.959Z,22.65
2023-05-14T09:03:56.674Z,22.78
2023-05-14T09:06:24.625Z,22.97
2023-05-14T09:08:51.574Z,23.40
2023-05-14T09:11:18.253Z,23.62
2023-05-14T09:13:44.973Z,23.79
2023-05-14T09:16:11.826Z,24.48
2023-05-14T09:18:38.748Z,24.61
2023-05-14T09:21:05.610Z,24.71
2023-05-14T09:23:33.839Z,24.92
2023-05-14T09:26:05.523Z,24.43
2023-05-14T09:28:32.343Z,24.80
2023-05-14T09:30:59.127Z,24.80
2023-05-14T09:33:29.562Z,24.54
2023-05-14T09:35:59.707Z,24.44
2023-05-14T09:38:31.055Z,24.53
2023-05-14T09:41:01.157Z,25.19
2023-05-14T09:43:28.267Z,25.05
2023-05-14T09:45:55.016Z,25.17
2023-05-14T09:48:22.898Z,24.82
2023-05-14T09:50:49.779Z,25.49
2023-05-14T09:53:17.679Z,26.12
2023-05-14T09:55:45.622Z,25.96
2023-05-14T09:58:14.571Z,26.17
2023-05-14T10:00:45.533Z,25.87
2023-05-14T10:03:15.606Z,26.09
2023-05-14T10:05:45.043Z,26.10
2023-05-14T10:08:22.096Z,26.89
2023-05-14T10:10:50.598Z,26.19
2023-05-14T10:13:22.875Z,26.22
2023-05-14T10:15:57.898Z,25.25
2023-05-14T10:18:26.490Z,24.53
2023-05-14T10:21:14.400Z,24.28
2023-05-14T10:23:42.529Z,25.02
2023-05-14T10:26:10.505Z,25.56
2023-05-14T10:28:37.648Z,26.05
2023-05-14T10:31:04.403Z,25.32
2023-05-14T10:33:46.721Z,25.10
2023-05-14T10:36:13.742Z,24.83
2023-05-14T10:38:40.695Z,24.83
2023-05-14T10:41:11.849Z,24.40
2023-05-14T10:43:40.682Z,24.34
2023-05-14T10:46:09.501Z,24.44
2023-05-14T10:48:37.853Z,24.01
2023-05-14T10:51:07.884Z,23.98
2023-05-14T10:53:40.664Z,24.23
2023-05-14T10:56:09.978Z,24.62
2023-05-14T10:58:42.096Z,25.00
2023-05-14T11:01:10.976Z,25.24
2023-05-14T11:03:44.335Z,24.85
2023-05-14T11:06:13.955Z,24.79
2023-05-14T11:08:41.630Z,24.76
2023-05-14T11:11:09.824Z,24.57
2023-05-14T11:13:36.621Z,24.74
2023-05-14T11:16:15.084Z,25.24
2023-05-14T11:18:48.232Z,25.75
2023-05-14T11:21:17.419Z,25.99
2023-05-14T11:23:46.821Z,26.11
2023-05-14T11:26:17.869Z,26.71
2023-05-14T11:28:48.956Z,27.29
2023-05-14T11:31:15.968Z,27.79
2023-05-14T11:33:42.954Z,27.19
2023-05-14T11:36:12.049Z,27.29
2023-05-14T11:38:49.143Z,27.13
2023-05-14T11:41:16.185Z,27.32
2023-05-14T11:43:43.048Z,27.17
2023-05-14T11:46:16.546Z,26.49
2023-05-14T11:48:43.439Z,25.91
2023-05-14T11:51:10.268Z,25.20
2023-05-14T11:53:37.152Z,25.29
2023-05-14T11:56:04.124Z,25.07
2023-05-14T11:58:34.040Z,24.92
2023-05-14T12:01:00.913Z,25.06
2023-05-14T12:03:30.154Z,24.70
2023-05-14T12:06:02.329Z,24.58
2023-05-14T12:08:31.270Z,24.30
2023-05-14T12:10:59.445Z,24.19
2023-05-14T12:13:31.392Z,24.43
2023-05-14T12:16:02.674Z,24.32
2023-05-14T12:18:32.059Z,24.57
2023-05-14T12:21:17.891Z,24.27
2023-05-14T12:24:03.457Z,23.94
2023-05-14T12:26:34.456Z,24.02
2023-05-14T12:29:03.459Z,24.19
2023-05-14T12:31:35.362Z,24.13
2023-05-14T12:34:04.820Z,23.92
2023-05-14T12:36:32.672Z,23.61
2023-05-14T12:39:03.751Z,23.82
2023-05-14T12:41:31.299Z,23.90
2023-05-14T12:43:59.292Z,23.76
2023-05-14T12:46:27.741Z,23.59
2023-05-14T12:48:55.428Z,23.44
2023-05-14T12:51:22.612Z,23.42
2023-05-14T12:53:50.434Z,23.74
2023-05-14T12:56:17.210Z,23.62
2023-05-14T12:58:44.104Z,23.81
2023-05-14T13:01:10.917Z,23.30
2023-05-14T13:03:37.789Z,23.47
2023-05-14T13:06:04.863Z,23.30
2023-05-14T13:08:31.601Z,23.17
2023-05-14T13:10:58.444Z,23.24
2023-05-14T13:13:25.309Z,23.77
2023-05-14T13:15:53.157Z,24.35
2023-05-14T13:18:20.023Z,24.70
2023-05-14T13:20:47.628Z,24.60
2023-05-14T13:23:15.064Z,24.43
2023-05-14T13:25:41.846Z,24.57
2023-05-14T13:28:09.308Z,24.74
2023-05-14T13:30:36.037Z,25.32
2023-05-14T13:33:03.037Z,25.69
2023-05-14T13:35:29.840Z,25.64
2023-05-14T13:37:56.621Z,25.71
2023-05-14T13:40:23.391Z,25.51
2023-05-14T13:42:50.242Z,25.35
2023-05-14T13:45:17.057Z,25.33
2023-05-14T13:47:44.326Z,25.25
2023-05-14T13:50:11.166Z,25.31
2023-05-14T13:52:39.049Z,26.15
2023-05-14T13:55:06.423Z,26.98
2023-05-14T13:57:33.264Z,27.10
2023-05-14T14:00:00.195Z,26.97
2023-05-14T14:02:26.939Z,27.02
2023-05-14T14:04:53.643Z,26.61
2023-05-14T14:07:21.165Z,26.52
2023-05-14T14:09:47.945Z,26.32
2023-05-14T14:12:14.895Z,25.78
2023-05-14T14:14:41.644Z,25.28
2023-05-14T14:17:09.009Z,25.37
2023-05-14T14:19:36.164Z,25.02
2023-05-14T14:22:02.991Z,24.48
2023-05-14T14:24:29.771Z,23.88
2023-05-14T14:26:56.633Z,23.13
2023-05-14T14:29:23.963Z,22.90
2023-05-14T14:31:50.841Z,22.92
2023-05-14T14:34:17.758Z,22.63
2023-05-14T14:36:44.528Z,22.26
2023-05-14T14:39:11.597Z,22.16
2023-05-14T14:41:38.399Z,21.95
2023-05-14T14:44:05.560Z,21.69
2023-05-14T14:46:33.261Z,21.61
2023-05-14T14:49:00.171Z,21.24
2023-05-14T14:51:27.200Z,21.72
2023-05-14T14:53:54.211Z,21.55
2023-05-14T14:56:21.182Z,21.65
2023-05-14T14:58:47.968Z,21.68
2023-05-14T15:01:15.002Z,21.75
2023-05-14T15:03:41.904Z,21.85
2023-05-14T15:06:08.723Z,21.90
2023-05-14T15:08:35.500Z,22.10
2023-05-14T15:11:02.346Z,21.75
2023-05-14T15:13:29.408Z,21.65
2023-05-14T15:15:56.204Z,21.76
2023-05-14T15:18:22.956Z,21.80
2023-05-14T15:20:50.029Z,21.77
2023-05-14T15:23:16.772Z,21.66
2023-05-14T15:25:43.640Z,21.66
2023-05-14T15:28:10.848Z,21.60
2023-05-14T15:30:37.802Z,21.48
2023-05-14T15:33:07.756Z,21.57
2023-05-14T15:35:34.842Z,21.63
2023-05-14T15:38:01.714Z,21.72
2023-05-14T15:40:28.575Z,21.84
2023-05-14T15:42:55.404Z,21.79
2023-05-14T15:45:22.274Z,21.81
2023-05-14T15:47:49.268Z,21.90
2023-05-14T15:50:16.135Z,22.20
2023-05-14T15:52:42.909Z,22.26
2023-05-14T15:55:10.358Z,22.40
2023-05-14T15:57:37.454Z,22.40
2023-05-14T16:00:11.000Z,22.31
2023-05-14T16:02:39.269Z,22.35
2023-05-14T16:05:07.510Z,22.13
2023-05-14T16:07:34.619Z,21.97
2023-05-14T16:10:01.501Z,21.97
2023-05-14T16:12:28.399Z,21.92
2023-05-14T16:14:57.003Z,21.89
2023-05-14T16:17:23.937Z,21.90
2023-05-14T16:19:51.376Z,21.77
2023-05-14T16:22:19.308Z,21.36
2023-05-14T16:24:46.373Z,21.23
2023-05-14T16:27:13.328Z,21.47
2023-05-14T16:29:40.120Z,21.72
2023-05-14T16:32:07.258Z,21.84
2023-05-14T16:34:34.185Z,21.65
2023-05-14T16:37:01.085Z,21.67
2023-05-14T16:39:28.278Z,21.63
2023-05-14T16:41:55.083Z,21.59
2023-05-14T16:44:21.920Z,21.47
2023-05-14T16:46:48.687Z,21.43
2023-05-14T16:49:15.514Z,21.32
2023-05-14T16:51:43.905Z,21.32
2023-05-14T16:54:10.864Z,21.16
2023-05-14T16:56:37.696Z,21.06
2023-05-14T16:59:04.729Z,21.04
2023-05-14T17:01:32.180Z,20.93
2023-05-14T17:03:58.975Z,21.02
2023-05-14T17:06:25.828Z,20.95
2023-05-14T17:08:52.591Z,20.78
2023-05-14T17:11:19.383Z,20.79
2023-05-14T17:13:46.214Z,20.73
2023-05-14T17:16:13.120Z,20.87
2023-05-14T17:18:40.104Z,20.68
2023-05-14T17:21:07.571Z,20.55
2023-05-14T17:23:34.656Z,20.46
2023-05-14T17:26:01.378Z,20.57
2023-05-14T17:28:29.960Z,20.62
2023-05-14T17:30:57.079Z,20.55
2023-05-14T17:33:24.220Z,20.35
2023-05-14T17:35:51.095Z,20.31
2023-05-14T17:38:17.900Z,20.32
2023-05-14T17:40:44.582Z,20.25
2023-05-14T17:43:11.538Z,20.03
2023-05-14T17:45:50.307Z,20.07
2023-05-14T17:48:19.671Z,19.95
2023-05-14T17:50:46.425Z,20.03
2023-05-14T17:53:13.246Z,19.86
2023-05-14T17:55:43.471Z,19.74
2023-05-14T17:58:15.507Z,19.76
2023-05-14T18:00:43.463Z,19.83
2023-05-14T18:03:10.706Z,19.69
2023-05-14T18:05:37.676Z,19.88
2023-05-14T18:08:04.628Z,19.58
2023-05-14T18:10:31.379Z,19.45
2023-05-14T18:12:58.151Z,19.56
2023-05-14T18:15:25.671Z,19.60
2023-05-14T18:17:53.013Z,19.60
2023-05-14T18:20:20.081Z,19.59
2023-05-14T18:22:46.919Z,19.51
2023-05-14T18:25:13.732Z,19.44
2023-05-14T18:27:44.911Z,19.30
2023-05-14T18:30:14.423Z,19.23
2023-05-14T18:32:43.635Z,19.30
2023-05-14T18:35:11.209Z,19.22
2023-05-14T18:37:38.768Z,19.20
2023-05-14T18:40:07.059Z,19.11
2023-05-14T18:42:34.396Z,19.11
2023-05-14T18:45:01.521Z,19.05
2023-05-14T18:47:30.611Z,19.06
2023-05-14T18:49:59.481Z,18.92
2023-05-14T18:52:26.961Z,18.98
2023-05-14T18:54:54.860Z,18.83
2023-05-14T18:57:22.115Z,18.80
2023-05-14T18:59:48.913Z,18.68
2023-05-14T19:02:16.203Z,18.63
2023-05-14T19:04:51.775Z,18.50
2023-05-14T19:07:20.653Z,18.54
2023-05-14T19:09:47.499Z,18.48
2023-05-14T19:12:14.792Z,18.52
2023-05-14T19:14:42.061Z,18.53
2023-05-14T19:17:09.157Z,18.40
2023-05-14T19:19:35.951Z,18.34
2023-05-14T19:22:02.700Z,18.13
2023-05-14T19:24:29.400Z,18.28
2023-05-14T19:26:56.428Z,18.30
2023-05-14T19:29:23.164Z,18.30
2023-05-14T19:31:50.122Z,18.32
2023-05-14T19:34:17.148Z,18.18
2023-05-14T19:36:43.988Z,18.12
2023-05-14T19:39:10.966Z,18.06
2023-05-14T19:41:37.955Z,17.99
2023-05-14T19:44:04.775Z,17.90
2023-05-14T19:46:31.577Z,17.89
2023-05-14T19:48:58.475Z,17.88
2023-05-14T19:51:25.539Z,17.80
2023-05-14T19:53:52.413Z,17.79
2023-05-14T19:56:19.337Z,17.76
2023-05-14T19:58:46.213Z,17.74
2023-05-14T20:01:13.117Z,17.72
2023-05-14T20:03:40.149Z,17.62
2023-05-14T20:06:07.890Z,17.56
2023-05-14T20:08:34.725Z,17.52
2023-05-14T20:11:01.880Z,17.50
2023-05-14T20:13:31.739Z,17.47
2023-05-14T20:15:59.019Z,17.45
2023-05-14T20:18:25.961Z,17.40
2023-05-14T20:20:53.000Z,17.28
2023-05-14T20:23:20.634Z,17.40
2023-05-14T20:25:47.872Z,17.33
2023-05-14T20:28:14.996Z,17.29
2023-05-14T20:30:41.863Z,17.17
2023-05-14T20:33:08.748Z,17.16
2023-05-14T20:35:36.116Z,17.08
2023-05-14T20:38:03.746Z,17.09
2023-05-14T20:40:32.785Z,17.07
2023-05-14T20:42:59.690Z,17.04
2023-05-14T20:45:26.962Z,16.99
2023-05-14T20:47:54.101Z,16.91
2023-05-14T20:50:22.556Z,16.92
2023-05-14T20:52:49.465Z,16.86
2023-05-14T20:55:16.381Z,16.85
2023-05-14T20:57:43.553Z,16.76
2023-05-14T21:00:11.234Z,16.77
2023-05-14T21:02:38.156Z,16.70
2023-05-14T21:05:05.907Z,16.58
2023-05-14T21:07:32.576Z,16.51
2023-05-14T21:09:59.446Z,16.56
2023-05-14T21:12:26.286Z,16.49
2023-05-14T21:14:53.002Z,16.44
2023-05-14T21:17:19.781Z,16.41
2023-05-14T21:19:46.580Z,16.39
2023-05-14T21:22:13.861Z,16.31
2023-05-14T21:24:40.642Z,16.28
2023-05-14T21:27:07.424Z,16.26
2023-05-14T21:29:34.139Z,16.25
2023-05-14T21:32:01.159Z,16.20
2023-05-14T21:34:29.812Z,16.08
2023-05-14T21:36:58.097Z,16.07
2023-05-14T21:39:24.812Z,16.16
2023-05-14T21:41:51.827Z,16.12
2023-05-14T21:44:18.510Z,16.12
2023-05-14T21:46:45.380Z,16.16
2023-05-14T21:49:12.113Z,16.16
2023-05-14T21:51:39.078Z,16.04
2023-05-14T21:54:06.861Z,16.00
2023-05-14T21:56:35.968Z,15.99
2023-05-14T21:59:03.153Z,15.96
2023-05-14T22:01:30.007Z,15.87
2023-05-14T22:03:58.051Z,15.95
2023-05-14T22:06:25.131Z,15.92
2023-05-14T22:08:51.899Z,15.87
2023-05-14T22:11:18.636Z,15.84
2023-05-14T22:13:45.483Z,15.75
2023-05-14T22:16:13.698Z,15.67
2023-05-14T22:18:41.489Z,15.61
2023-05-14T22:21:08.399Z,15.68
2023-05-14T22:23:35.246Z,15.65
2023-05-14T22:26:02.079Z,15.61
2023-05-14T22:28:28.811Z,15.66
2023-05-14T22:30:56.601Z,15.53
2023-05-14T22:33:23.492Z,15.55
2023-05-14T22:35:50.593Z,15.46
2023-05-14T22:38:17.556Z,15.39
2023-05-14T22:40:44.392Z,15.46
2023-05-14T22:43:11.132Z,15.42
2023-05-14T22:45:37.992Z,15.29
2023-05-14T22:48:04.896Z,15.18
2023-05-14T22:50:31.769Z,15.09
2023-05-14T22:52:58.520Z,15.03
2023-05-14T22:55:25.669Z,14.93
2023-05-14T22:57:52.616Z,15.00
2023-05-14T23:00:19.396Z,14.97
2023-05-14T23:02:46.255Z,14.97
2023-05-14T23:05:13.626Z,15.00
2023-05-14T23:07:40.528Z,15.01
2023-05-14T23:10:07.626Z,14.95
2023-05-14T23:12:34.458Z,14.93
2023-05-14T23:15:01.480Z,15.02
2023-05-14T23:17:28.562Z,14.93
2023-05-14T23:19:55.511Z,14.96
2023-05-14T23:22:22.303Z,14.95
2023-05-14T23:24:49.159Z,14.80
2023-05-14T23:27:16.073Z,14.74
2023-05-14T23:29:42.907Z,14.68
2023-05-14T23:32:09.672Z,14.65
2023-05-14T23:34:36.449Z,14.56
2023-05-14T23:37:03.267Z,14.54
2023-05-14T23:39:30.248Z,14.52
2023-05-14T23:41:56.960Z,14.48
2023-05-14T23:44:23.855Z,14.36
2023-05-14T23:46:50.822Z,14.40
2023-05-14T23:49:17.709Z,14.25
2023-05-14T23:51:44.536Z,14.29
2023-05-14T23:54:11.819Z,14.25
2023-05-14T23:56:38.936Z,14.25
2023-05-14T23:59:05.757Z,14.30
